Time;durP1;ratioP1;P1;durP2;ratioP2;P2;SDS_P1;SDS_P2;PMS_P1;PMS_P2;Temp;Humidity;BMP_temperature;BMP_pressure;BME280_temperature;BME280_humidity;BME280_pressure;Samples;Min_cycle;Max_cycle;Signal;HPM_P1;HPM_P2
2021/10/19 00:00:07;;;;;;;12.15;5.45;;;16.60;99.90;;;;;;5055280;28;20560;-59
2021/10/19 00:02:44;;;;;;;8.80;5.18;;;16.50;99.90;;;;;;5072921;28;20076;-58
2021/10/19 00:05:13;;;;;;;11.23;4.93;;;16.50;99.90;;;;;;5038250;28;20058;-59
2021/10/19 00:07:41;;;;;;;6.53;3.97;;;16.50;99.90;;;;;;5055031;28;20060;-59
2021/10/19 00:10:11;;;;;;;8.23;4.65;;;16.50;99.90;;;;;;5055004;28;20071;-59
2021/10/19 00:12:40;;;;;;;7.28;4.18;;;16.40;99.90;;;;;;5041928;28;20045;-59
2021/10/19 00:15:10;;;;;;;11.25;5.20;;;16.40;99.90;;;;;;5058615;28;20123;-59
2021/10/19 00:17:39;;;;;;;14.27;5.53;;;16.40;99.90;;;;;;5076242;28;20552;-58
2021/10/19 00:20:07;;;;;;;8.45;5.53;;;16.40;99.90;;;;;;5041842;28;20045;-59
2021/10/19 00:22:35;;;;;;;9.50;4.90;;;16.30;99.90;;;;;;5041565;28;20051;-59
2021/10/19 00:25:04;;;;;;;8.10;4.55;;;16.30;99.90;;;;;;5041475;28;20522;-59
2021/10/19 00:27:34;;;;;;;8.23;4.82;;;16.30;99.90;;;;;;5076448;28;20064;-59
2021/10/19 00:30:05;;;;;;;8.43;5.35;;;16.30;99.90;;;;;;5058490;28;20166;-59
2021/10/19 00:32:32;;;;;;;9.57;5.40;;;16.20;99.90;;;;;;5042097;28;20147;-59
2021/10/19 00:35:00;;;;;;;5.88;3.45;;;16.20;99.90;;;;;;5058316;28;20466;-59
2021/10/19 00:37:27;;;;;;;8.93;5.30;;;16.20;99.90;;;;;;5057660;28;20076;-59
2021/10/19 00:39:55;;;;;;;8.02;5.00;;;16.20;99.90;;;;;;5041339;28;20045;-59
2021/10/19 00:42:22;;;;;;;7.30;4.03;;;16.30;99.90;;;;;;5058432;28;20048;-59
2021/10/19 00:44:50;;;;;;;6.97;3.70;;;16.30;99.90;;;;;;5058407;28;20045;-59
2021/10/19 00:47:21;;;;;;;6.43;3.90;;;16.30;99.90;;;;;;5076055;28;20075;-59
2021/10/19 00:49:49;;;;;;;7.82;4.20;;;16.30;99.90;;;;;;5076278;28;20040;-59
2021/10/19 00:52:19;;;;;;;10.18;3.60;;;16.30;99.90;;;;;;5058197;28;20045;-59
2021/10/19 00:54:47;;;;;;;7.82;4.65;;;16.30;99.90;;;;;;5057857;28;20056;-59
2021/10/19 00:57:14;;;;;;;5.50;3.20;;;16.30;99.90;;;;;;5057906;28;20438;-59
2021/10/19 00:59:43;;;;;;;9.43;3.83;;;16.30;99.90;;;;;;5041308;28;20446;-59
2021/10/19 01:02:15;;;;;;;8.00;4.43;;;16.30;99.90;;;;;;5040520;28;20106;-59
2021/10/19 01:04:43;;;;;;;7.90;3.70;;;16.30;99.90;;;;;;5057792;28;20521;-59
2021/10/19 01:07:13;;;;;;;8.70;4.28;;;16.30;99.90;;;;;;5040872;28;20048;-59
2021/10/19 01:09:41;;;;;;;8.45;4.32;;;16.30;99.90;;;;;;5058031;28;20494;-59
2021/10/19 01:12:10;;;;;;;5.70;3.78;;;16.30;99.90;;;;;;5058044;28;20394;-59
2021/10/19 01:14:38;;;;;;;7.80;3.70;;;16.30;99.90;;;;;;5057555;28;20115;-59
2021/10/19 01:17:08;;;;;;;6.10;3.38;;;16.30;99.90;;;;;;5057347;28;20503;-58
2021/10/19 01:19:36;;;;;;;14.93;4.50;;;16.40;99.90;;;;;;5057722;28;20110;-59
2021/10/19 01:22:05;;;;;;;6.35;3.40;;;16.30;99.90;;;;;;5057141;28;20040;-59
2021/10/19 01:24:33;;;;;;;6.15;3.75;;;16.40;99.90;;;;;;5057454;28;20136;-59
2021/10/19 01:27:01;;;;;;;7.50;3.50;;;16.40;99.90;;;;;;5075224;28;20380;-59
2021/10/19 01:29:28;;;;;;;4.78;3.33;;;16.40;99.90;;;;;;5057660;28;20044;-59
2021/10/19 01:31:56;;;;;;;7.43;3.45;;;16.30;99.90;;;;;;5040899;28;20053;-59
2021/10/19 01:34:24;;;;;;;5.03;3.25;;;16.30;99.90;;;;;;5057265;28;20041;-59
2021/10/19 01:36:51;;;;;;;7.15;3.10;;;16.30;99.90;;;;;;5074660;28;20053;-59
2021/10/19 01:39:19;;;;;;;6.07;3.17;;;16.30;99.90;;;;;;5057744;28;20079;-59
2021/10/19 01:41:47;;;;;;;6.30;3.42;;;16.30;99.90;;;;;;5057364;28;20099;-59
2021/10/19 01:44:15;;;;;;;5.82;3.83;;;16.40;99.90;;;;;;5057131;28;20055;-59
2021/10/19 01:46:43;;;;;;;5.03;3.38;;;16.30;99.90;;;;;;5040448;28;20059;-59
2021/10/19 01:49:10;;;;;;;6.43;3.92;;;16.40;99.90;;;;;;5057092;28;20128;-59
2021/10/19 01:51:38;;;;;;;6.55;3.45;;;16.40;99.90;;;;;;5057277;28;20044;-59
2021/10/19 01:54:05;;;;;;;9.23;3.60;;;16.40;99.90;;;;;;5056855;28;20053;-59
2021/10/19 01:56:34;;;;;;;5.70;3.72;;;16.40;99.90;;;;;;5056893;28;20447;-59
2021/10/19 01:59:02;;;;;;;9.13;3.67;;;16.40;99.90;;;;;;5057030;28;20486;-59
2021/10/19 02:01:29;;;;;;;4.60;2.83;;;16.40;99.90;;;;;;5056490;28;20044;-59
2021/10/19 02:03:57;;;;;;;6.82;3.22;;;16.40;99.90;;;;;;5056766;28;20399;-58
2021/10/19 02:06:24;;;;;;;11.57;5.18;;;16.40;99.90;;;;;;5074391;28;20473;-59
2021/10/19 02:08:52;;;;;;;6.50;3.92;;;16.40;99.90;;;;;;5074373;28;20074;-59
2021/10/19 02:11:19;;;;;;;7.05;3.40;;;16.40;99.90;;;;;;5056612;28;20091;-59
2021/10/19 02:13:47;;;;;;;8.10;4.32;;;16.40;99.90;;;;;;5040344;28;20079;-59
2021/10/19 02:16:14;;;;;;;6.38;3.58;;;16.40;99.90;;;;;;5055960;28;20052;-59
2021/10/19 02:18:42;;;;;;;9.73;4.53;;;16.40;99.90;;;;;;5056394;28;20170;-59
2021/10/19 02:21:09;;;;;;;7.18;3.78;;;16.40;99.90;;;;;;5040120;28;20040;-59
2021/10/19 02:23:37;;;;;;;7.55;4.28;;;16.40;99.90;;;;;;5056509;28;20487;-59
2021/10/19 02:26:04;;;;;;;6.15;4.43;;;16.40;99.90;;;;;;5074065;28;20039;-59
2021/10/19 02:28:32;;;;;;;8.18;3.90;;;16.40;99.90;;;;;;5056315;28;20078;-59
2021/10/19 02:31:00;;;;;;;6.13;4.60;;;16.40;99.90;;;;;;5056099;28;20483;-59
2021/10/19 02:33:27;;;;;;;8.75;4.45;;;16.40;99.90;;;;;;5055654;28;20039;-59
2021/10/19 02:35:55;;;;;;;7.47;3.65;;;16.40;99.90;;;;;;5056058;28;20064;-59
2021/10/19 02:38:22;;;;;;;8.55;4.10;;;16.30;99.90;;;;;;5073806;28;20051;-59
2021/10/19 02:40:50;;;;;;;8.18;3.90;;;16.40;99.90;;;;;;5039452;28;20044;-59
2021/10/19 02:43:17;;;;;;;6.25;4.25;;;16.40;99.90;;;;;;5056126;28;20032;-59
2021/10/19 02:45:45;;;;;;;9.63;4.45;;;16.40;99.90;;;;;;5073880;28;20028;-60
2021/10/19 02:48:12;;;;;;;10.88;3.80;;;16.40;99.90;;;;;;5056021;28;20044;-59
2021/10/19 02:50:40;;;;;;;8.85;4.25;;;16.40;99.90;;;;;;5056133;28;20376;-59
2021/10/19 02:53:08;;;;;;;8.85;5.07;;;16.40;99.90;;;;;;5056125;28;20052;-59
2021/10/19 02:55:35;;;;;;;9.38;4.15;;;16.40;99.90;;;;;;5055805;28;20554;-59
2021/10/19 02:58:03;;;;;;;7.90;4.75;;;16.30;99.90;;;;;;5039022;28;20047;-59
2021/10/19 03:00:32;;;;;;;8.57;4.15;;;16.40;99.90;;;;;;5039558;28;20049;-59
2021/10/19 03:02:59;;;;;;;7.38;4.07;;;16.40;99.90;;;;;;5055720;28;20044;-59
2021/10/19 03:05:27;;;;;;;7.93;4.07;;;16.40;99.90;;;;;;5055841;28;20215;-59
2021/10/19 03:07:54;;;;;;;10.32;3.92;;;16.30;99.90;;;;;;5055850;28;20390;-59
2021/10/19 03:10:22;;;;;;;7.75;4.50;;;16.30;99.90;;;;;;5056080;28;20474;-59
2021/10/19 03:12:50;;;;;;;9.57;4.82;;;16.30;99.90;;;;;;5039213;28;20060;-59
2021/10/19 03:15:19;;;;;;;6.68;4.13;;;16.30;99.90;;;;;;5039049;28;20063;-59
2021/10/19 03:17:47;;;;;;;12.50;4.53;;;16.30;99.90;;;;;;5055881;28;20451;-59
2021/10/19 03:20:15;;;;;;;8.15;4.97;;;16.30;99.90;;;;;;5073532;28;20087;-59
2021/10/19 03:22:42;;;;;;;8.25;4.82;;;16.30;99.90;;;;;;5055871;28;20052;-59
2021/10/19 03:25:10;;;;;;;7.82;4.40;;;16.30;99.90;;;;;;5055447;28;20135;-59
2021/10/19 03:27:37;;;;;;;10.13;5.38;;;16.30;99.90;;;;;;5073392;28;20079;-59
2021/10/19 03:30:06;;;;;;;10.13;5.22;;;16.30;99.90;;;;;;5073053;28;20063;-59
2021/10/19 03:32:34;;;;;;;7.00;4.20;;;16.30;99.90;;;;;;5039265;28;20048;-59
2021/10/19 03:35:01;;;;;;;7.95;4.85;;;16.30;99.90;;;;;;5055459;28;20514;-59
2021/10/19 03:37:29;;;;;;;10.60;4.80;;;16.30;99.90;;;;;;5055405;28;20048;-59
2021/10/19 03:39:57;;;;;;;8.43;5.30;;;16.30;99.90;;;;;;5073279;28;20433;-59
2021/10/19 03:42:24;;;;;;;9.07;5.47;;;16.30;99.90;;;;;;5055371;28;20048;-59
2021/10/19 03:44:52;;;;;;;9.93;5.85;;;16.20;99.90;;;;;;5057154;28;20043;-59
2021/10/19 03:47:19;;;;;;;6.80;4.53;;;16.20;99.90;;;;;;5059560;28;20056;-59
2021/10/19 03:49:47;;;;;;;14.98;5.25;;;16.10;99.90;;;;;;5077021;28;20062;-59
2021/10/19 03:52:15;;;;;;;8.13;5.10;;;16.10;99.90;;;;;;5059312;28;20062;-59
2021/10/19 03:54:42;;;;;;;11.90;4.90;;;16.10;99.90;;;;;;5059073;28;20098;-59
2021/10/19 03:57:09;;;;;;;7.63;5.43;;;16.10;99.90;;;;;;5058945;28;20071;-59
2021/10/19 03:59:37;;;;;;;9.02;5.40;;;16.10;99.90;;;;;;5058888;28;20052;-59
2021/10/19 04:02:04;;;;;;;14.43;5.88;;;16.10;99.90;;;;;;5059345;28;20131;-59
2021/10/19 04:04:34;;;;;;;15.02;4.95;;;16.20;99.90;;;;;;5042710;28;20068;-59
2021/10/19 04:07:02;;;;;;;8.48;5.20;;;16.20;99.90;;;;;;5059405;28;20044;-59
2021/10/19 04:09:30;;;;;;;9.70;5.63;;;16.20;99.90;;;;;;5042406;28;20044;-59
2021/10/19 04:11:57;;;;;;;10.30;5.43;;;16.20;99.90;;;;;;5042224;28;20143;-59
2021/10/19 04:14:25;;;;;;;11.55;6.03;;;16.20;99.90;;;;;;5042271;28;20394;-59
2021/10/19 04:16:53;;;;;;;9.70;5.97;;;16.20;99.90;;;;;;5058484;28;20503;-59
2021/10/19 04:19:20;;;;;;;15.30;6.38;;;16.20;99.90;;;;;;5076559;28;20041;-59
2021/10/19 04:21:49;;;;;;;8.80;5.95;;;16.20;99.90;;;;;;5076865;28;20067;-59
2021/10/19 04:24:17;;;;;;;9.48;6.55;;;16.20;99.90;;;;;;5042271;28;20418;-59
2021/10/19 04:26:45;;;;;;;12.73;5.88;;;16.20;99.90;;;;;;5058682;28;20041;-59
2021/10/19 04:29:13;;;;;;;10.07;5.90;;;16.20;99.90;;;;;;5058726;28;20052;-59
2021/10/19 04:31:41;;;;;;;10.02;6.38;;;16.20;99.90;;;;;;5058640;28;20079;-59
2021/10/19 04:34:09;;;;;;;8.15;5.40;;;16.20;99.90;;;;;;5058536;28;20048;-59
2021/10/19 04:36:37;;;;;;;10.95;6.15;;;16.20;99.90;;;;;;5058337;28;20495;-59
2021/10/19 04:39:04;;;;;;;12.35;5.78;;;16.10;99.90;;;;;;5058453;28;20509;-59
2021/10/19 04:41:32;;;;;;;11.23;6.22;;;16.20;99.90;;;;;;5058538;28;20455;-58
2021/10/19 04:43:59;;;;;;;9.32;5.45;;;16.20;99.90;;;;;;5058393;28;20045;-59
2021/10/19 04:46:27;;;;;;;11.65;6.03;;;16.10;99.90;;;;;;5075923;28;20132;-59
2021/10/19 04:48:54;;;;;;;14.90;6.75;;;16.10;99.90;;;;;;5058223;28;20190;-59
2021/10/19 04:51:22;;;;;;;9.60;6.38;;;16.20;99.90;;;;;;5058101;28;20403;-59
2021/10/19 04:53:49;;;;;;;10.63;6.22;;;16.20;99.90;;;;;;5075421;28;20049;-59
2021/10/19 04:56:18;;;;;;;11.88;5.95;;;16.20;99.90;;;;;;5074659;28;20037;-59
2021/10/19 04:58:45;;;;;;;9.75;5.50;;;16.10;99.90;;;;;;5009206;28;20048;-59
2021/10/19 05:01:14;;;;;;;13.10;6.40;;;16.10;99.90;;;;;;5058178;28;20072;-59
2021/10/19 05:03:42;;;;;;;10.70;5.70;;;16.10;99.90;;;;;;5058062;28;20036;-60
2021/10/19 05:06:10;;;;;;;7.53;6.32;;;16.10;99.90;;;;;;5057908;28;20052;-59
2021/10/19 05:08:38;;;;;;;9.48;5.55;;;16.10;99.90;;;;;;5057727;28;20087;-59
2021/10/19 05:11:05;;;;;;;10.80;5.57;;;16.00;99.90;;;;;;5058021;28;20389;-59
2021/10/19 05:13:34;;;;;;;11.90;6.20;;;16.00;99.90;;;;;;5041410;28;20056;-59
2021/10/19 05:16:01;;;;;;;10.68;5.68;;;16.00;99.90;;;;;;5057696;28;20047;-59
2021/10/19 05:18:29;;;;;;;8.70;5.53;;;16.00;99.90;;;;;;5057379;28;20090;-59
2021/10/19 05:20:58;;;;;;;10.63;5.75;;;16.00;99.90;;;;;;5075242;28;20048;-60
2021/10/19 05:23:25;;;;;;;10.13;5.10;;;16.10;99.90;;;;;;5057812;28;20041;-59
2021/10/19 05:25:53;;;;;;;10.88;5.00;;;16.10;99.90;;;;;;5057646;28;20051;-59
2021/10/19 05:28:20;;;;;;;8.30;4.63;;;16.10;99.90;;;;;;5041486;28;20450;-59
2021/10/19 05:30:48;;;;;;;13.80;5.20;;;16.10;99.90;;;;;;5057559;28;20143;-59
2021/10/19 05:33:16;;;;;;;8.13;4.90;;;16.10;99.90;;;;;;5057305;28;20041;-59
2021/10/19 05:35:43;;;;;;;8.45;5.43;;;16.10;99.90;;;;;;5057187;28;20079;-59
2021/10/19 05:38:11;;;;;;;11.27;6.32;;;16.20;99.90;;;;;;5056987;28;20063;-59
2021/10/19 05:40:39;;;;;;;7.65;5.75;;;16.20;99.90;;;;;;5057458;28;20487;-59
2021/10/19 05:43:06;;;;;;;9.35;5.60;;;16.20;99.90;;;;;;5074748;28;20399;-59
2021/10/19 05:45:35;;;;;;;9.27;5.93;;;16.20;99.90;;;;;;5074692;28;20048;-60
2021/10/19 05:48:03;;;;;;;8.48;5.40;;;16.30;99.90;;;;;;5040537;28;20048;-60
2021/10/19 05:50:33;;;;;;;8.20;5.22;;;16.40;99.90;;;;;;5023129;28;20040;-60
2021/10/19 05:53:01;;;;;;;8.68;5.28;;;16.50;99.90;;;;;;5040793;28;20495;-60
2021/10/19 05:55:28;;;;;;;8.52;4.93;;;16.60;99.90;;;;;;5074608;28;20052;-59
2021/10/19 05:57:57;;;;;;;8.43;4.95;;;16.70;99.90;;;;;;5057256;28;20036;-59
2021/10/19 06:00:33;;;;;;;8.25;4.68;;;16.90;99.90;;;;;;5058294;28;20501;-60
2021/10/19 06:03:01;;;;;;;7.78;4.97;;;17.30;99.90;;;;;;5056942;28;20040;-59
2021/10/19 06:05:28;;;;;;;8.05;5.15;;;17.50;99.90;;;;;;5056794;28;20052;-59
2021/10/19 06:07:56;;;;;;;7.40;4.78;;;17.70;99.90;;;;;;5056902;28;20044;-60
2021/10/19 06:10:23;;;;;;;9.77;5.32;;;17.90;99.90;;;;;;5056884;28;20120;-60
2021/10/19 06:12:51;;;;;;;9.70;4.78;;;18.10;99.90;;;;;;5074187;28;20470;-59
2021/10/19 06:15:20;;;;;;;8.52;4.28;;;18.30;99.90;;;;;;5056589;28;20052;-59
2021/10/19 06:17:48;;;;;;;8.82;4.07;;;18.40;99.90;;;;;;5036462;28;20052;-59
2021/10/19 06:20:16;;;;;;;7.43;4.63;;;18.60;99.90;;;;;;5036660;28;20112;-59
2021/10/19 06:22:43;;;;;;;7.18;5.03;;;18.80;99.90;;;;;;5036683;28;20068;-59
2021/10/19 06:25:11;;;;;;;8.93;5.10;;;19.00;99.90;;;;;;5036561;28;20080;-60
2021/10/19 06:27:40;;;;;;;12.57;4.30;;;19.00;99.90;;;;;;5036460;28;20128;-59
2021/10/19 06:30:09;;;;;;;6.07;4.43;;;19.10;99.90;;;;;;5036403;28;20040;-59
2021/10/19 06:32:39;;;;;;;9.27;4.50;;;19.50;99.90;;;;;;5036153;28;20388;-60
2021/10/19 06:35:09;;;;;;;9.68;4.95;;;19.80;99.90;;;;;;5020450;28;20053;-59
2021/10/19 06:37:37;;;;;;;7.35;4.45;;;20.00;99.90;;;;;;5053932;28;20037;-59
2021/10/19 06:40:06;;;;;;;7.53;4.75;;;20.10;99.90;;;;;;5036179;28;20059;-59
2021/10/19 06:42:34;;;;;;;8.10;4.90;;;20.10;99.90;;;;;;5019505;28;20049;-59
2021/10/19 06:45:04;;;;;;;7.35;5.07;;;20.20;99.90;;;;;;5036500;28;20045;-60
2021/10/19 06:47:33;;;;;;;8.52;4.72;;;20.40;99.90;;;;;;5053644;28;20052;-60
2021/10/19 06:50:04;;;;;;;9.27;4.80;;;20.50;99.90;;;;;;5036179;28;20477;-59
2021/10/19 06:52:32;;;;;;;9.77;5.20;;;20.60;99.90;;;;;;5035862;28;20041;-57
2021/10/19 06:55:00;;;;;;;6.28;4.20;;;20.80;99.90;;;;;;5003239;28;20084;-57
2021/10/19 06:57:27;;;;;;;9.63;5.32;;;20.90;99.90;;;;;;5035659;28;20379;-57
2021/10/19 06:59:55;;;;;;;8.52;4.50;;;20.90;99.90;;;;;;5053611;28;20060;-57
2021/10/19 07:02:22;;;;;;;9.52;4.82;;;20.90;99.90;;;;;;5035695;28;20048;-57
2021/10/19 07:04:50;;;;;;;5.95;4.25;;;20.90;99.90;;;;;;5053355;28;20111;-57
2021/10/19 07:07:17;;;;;;;13.10;6.03;;;20.80;99.90;;;;;;5053489;28;20072;-57
2021/10/19 07:09:45;;;;;;;5.43;3.83;;;20.70;99.90;;;;;;5035871;28;20059;-58
2021/10/19 07:12:12;;;;;;;8.82;4.75;;;20.70;99.90;;;;;;5035787;28;20049;-57
2021/10/19 07:14:40;;;;;;;9.60;3.97;;;20.80;99.90;;;;;;5053341;28;20053;-58
2021/10/19 07:17:08;;;;;;;6.32;4.22;;;20.90;99.90;;;;;;5033783;28;20143;-58
2021/10/19 07:19:38;;;;;;;6.32;4.53;;;21.10;99.90;;;;;;5038807;28;20372;-58
2021/10/19 07:22:06;;;;;;;7.00;3.92;;;21.30;99.90;;;;;;5055826;28;20037;-58
2021/10/19 07:24:34;;;;;;;8.27;4.53;;;21.50;99.90;;;;;;5055661;28;20047;-58
2021/10/19 07:27:02;;;;;;;6.30;4.20;;;21.60;99.90;;;;;;5039082;28;20151;-58
2021/10/19 07:29:29;;;;;;;8.07;4.65;;;21.70;99.90;;;;;;5055717;28;20137;-58
2021/10/19 07:31:57;;;;;;;10.48;4.55;;;21.80;99.90;;;;;;5073371;28;20033;-58
2021/10/19 07:34:25;;;;;;;9.07;5.55;;;21.80;99.90;;;;;;5055197;28;20076;-58
2021/10/19 07:36:53;;;;;;;6.35;3.90;;;21.80;99.90;;;;;;5055317;28;20041;-58
2021/10/19 07:39:21;;;;;;;7.05;4.43;;;21.70;99.90;;;;;;5055285;28;20076;-57
2021/10/19 07:41:48;;;;;;;9.23;3.92;;;21.60;99.90;;;;;;5073100;28;20121;-57
2021/10/19 07:44:16;;;;;;;13.43;4.22;;;21.20;99.90;;;;;;5054560;28;20058;-57
2021/10/19 07:46:44;;;;;;;5.13;3.28;;;20.90;99.90;;;;;;5055156;28;20051;-57
2021/10/19 07:49:11;;;;;;;7.85;3.20;;;20.70;99.90;;;;;;5044938;28;20045;-58
2021/10/19 07:51:39;;;;;;;5.10;2.90;;;20.50;99.90;;;;;;5024109;28;20053;-59
2021/10/19 07:54:07;;;;;;;7.32;3.55;;;20.30;99.90;;;;;;5050478;28;20044;-58
2021/10/19 07:56:34;;;;;;;7.85;2.90;;;20.30;99.90;;;;;;5046597;28;20072;-58
2021/10/19 07:59:05;;;;;;;6.45;3.55;;;20.50;99.90;;;;;;5013807;28;20042;-58
2021/10/19 08:01:34;;;;;;;5.18;3.22;;;20.50;99.90;;;;;;5016680;28;20046;-58
2021/10/19 08:04:03;;;;;;;7.85;3.33;;;20.60;99.90;;;;;;5047207;28;20056;-58
2021/10/19 08:06:31;;;;;;;8.65;3.78;;;20.50;99.90;;;;;;5026997;28;20037;-58
2021/10/19 08:09:00;;;;;;;7.95;3.58;;;20.50;99.90;;;;;;5013159;28;20037;-59
2021/10/19 08:11:27;;;;;;;7.63;3.28;;;20.50;99.90;;;;;;5001741;28;20045;-58
2021/10/19 08:13:56;;;;;;;4.50;2.58;;;20.40;99.90;;;;;;5060703;28;20045;-58
2021/10/19 08:16:25;;;;;;;9.20;2.45;;;20.40;99.90;;;;;;5043196;28;20107;-58
2021/10/19 08:18:54;;;;;;;4.80;2.72;;;20.50;99.90;;;;;;5033674;28;20492;-58
2021/10/19 08:21:23;;;;;;;4.25;2.78;;;20.60;99.90;;;;;;5035029;28;20391;-58
2021/10/19 08:23:51;;;;;;;6.50;3.22;;;20.80;99.90;;;;;;5019605;28;20132;-58
2021/10/19 08:26:19;;;;;;;14.18;3.78;;;20.90;99.90;;;;;;5015567;28;20067;-58
2021/10/19 08:28:47;;;;;;;4.82;2.42;;;20.90;99.90;;;;;;5029591;28;20049;-58
2021/10/19 08:31:16;;;;;;;7.90;3.28;;;21.00;99.90;;;;;;5030560;28;20114;-58
2021/10/19 08:33:44;;;;;;;6.32;2.53;;;21.10;99.90;;;;;;5030384;28;20495;-60
2021/10/19 08:36:12;;;;;;;4.05;2.50;;;21.20;99.90;;;;;;5024623;28;20047;-58
2021/10/19 08:38:41;;;;;;;6.95;2.70;;;21.20;99.90;;;;;;5034377;28;20045;-58
2021/10/19 08:41:11;;;;;;;4.85;2.47;;;21.20;99.90;;;;;;5033857;28;20046;-58
2021/10/19 08:43:39;;;;;;;13.32;2.70;;;21.20;99.90;;;;;;5036925;28;20442;-58
2021/10/19 08:46:09;;;;;;;4.93;2.35;;;21.20;99.90;;;;;;5033313;28;20037;-58
2021/10/19 08:48:38;;;;;;;4.78;2.63;;;21.00;99.90;;;;;;5047182;28;20443;-58
2021/10/19 08:51:09;;;;;;;11.18;2.95;;;21.10;99.90;;;;;;5028231;28;20136;-57
2021/10/19 08:53:42;;;;;;;4.85;2.70;;;21.00;99.90;;;;;;5045278;28;20056;-58
2021/10/19 08:56:10;;;;;;;7.03;3.42;;;20.80;99.90;;;;;;5074746;28;20090;-57
2021/10/19 08:58:39;;;;;;;9.30;3.70;;;20.80;99.90;;;;;;5056002;28;20037;-55
2021/10/19 09:01:08;;;;;;;9.65;3.88;;;20.80;99.90;;;;;;5056577;28;20087;-55
2021/10/19 09:03:50;;;;;;;6.57;3.90;;;20.80;99.90;;;;;;5023382;28;20041;-51
2021/10/19 09:06:30;;;;;;;7.18;2.67;;;20.90;99.90;;;;;;5074471;28;20152;-54
2021/10/19 09:09:04;;;;;;;7.88;2.95;;;20.90;99.90;;;;;;5074286;28;20036;-56
2021/10/19 09:11:43;;;;;;;5.22;2.83;;;20.90;99.90;;;;;;5056362;28;20398;-56
2021/10/19 09:14:12;;;;;;;5.15;2.83;;;20.90;99.90;;;;;;5056595;28;20068;-57
2021/10/19 09:16:41;;;;;;;5.68;2.83;;;20.90;99.90;;;;;;5055900;28;20127;-57
2021/10/19 09:19:11;;;;;;;3.92;2.75;;;20.80;99.90;;;;;;5039544;28;20079;-58
2021/10/19 09:21:55;;;;;;;6.45;4.10;;;20.90;99.90;;;;;;5073999;28;20040;-58
2021/10/19 09:24:29;;;;;;;9.35;2.80;;;21.00;99.90;;;;;;5073903;28;20466;-58
2021/10/19 09:26:59;;;;;;;5.53;3.10;;;21.00;99.90;;;;;;5055828;28;20112;-58
2021/10/19 09:29:46;;;;;;;8.00;3.78;;;21.10;99.90;;;;;;5039285;28;20048;-58
2021/10/19 09:32:15;;;;;;;6.30;3.28;;;21.10;99.90;;;;;;5039676;28;20123;-58
2021/10/19 09:34:45;;;;;;;7.72;3.53;;;21.00;99.90;;;;;;5055971;28;20040;-59
2021/10/19 09:37:21;;;;;;;22.50;5.00;;;20.90;99.90;;;;;;5055720;28;20502;-58
2021/10/19 09:39:51;;;;;;;7.85;3.10;;;20.80;99.90;;;;;;5073524;28;20052;-56
2021/10/19 09:42:27;;;;;;;9.07;3.63;;;20.90;99.90;;;;;;5072878;28;20078;-55
2021/10/19 09:45:00;;;;;;;;;;;20.90;99.90;;;;;;5074052;28;20041;-56
2021/10/19 09:47:39;;;;;;;5.32;3.05;;;20.80;99.90;;;;;;5038453;28;19920;-55
2021/10/19 09:50:08;;;;;;;5.40;3.17;;;20.80;99.90;;;;;;5039058;28;20099;-57
2021/10/19 09:52:39;;;;;;;15.13;4.78;;;20.70;99.90;;;;;;5055325;28;20438;-58
2021/10/19 09:55:10;;;;;;;9.95;2.92;;;20.70;99.90;;;;;;5055619;28;20040;-56
2021/10/19 09:57:39;;;;;;;9.35;4.10;;;20.70;99.90;;;;;;5073214;28;20043;-56
2021/10/19 10:00:08;;;;;;;6.97;2.90;;;20.60;99.90;;;;;;5039042;28;20068;-57
2021/10/19 10:02:39;;;;;;;7.28;4.10;;;20.60;99.90;;;;;;5039155;28;20084;-56
2021/10/19 10:05:07;;;;;;;5.03;2.70;;;20.70;99.90;;;;;;5055469;28;20045;-56
2021/10/19 10:07:37;;;;;;;4.47;2.40;;;20.70;99.90;;;;;;5055534;28;20040;-56
2021/10/19 10:10:06;;;;;;;7.70;3.40;;;20.80;99.90;;;;;;5054937;28;20048;-57
2021/10/19 10:12:34;;;;;;;6.43;3.25;;;20.90;99.90;;;;;;5038774;28;20048;-56
2021/10/19 10:15:03;;;;;;;8.20;2.95;;;20.80;99.90;;;;;;5038440;28;20040;-54
2021/10/19 10:17:31;;;;;;;4.53;3.00;;;20.80;99.90;;;;;;5038599;28;20410;-56
2021/10/19 10:20:08;;;;;;;7.75;4.18;;;20.90;99.90;;;;;;5055112;28;20044;-56
2021/10/19 10:22:45;;;;;;;10.77;3.67;;;21.00;99.90;;;;;;5072422;28;20135;-56
2021/10/19 10:25:18;;;;;;;10.13;3.70;;;21.00;99.90;;;;;;5054805;28;20553;-56
2021/10/19 10:27:46;;;;;;;7.65;3.03;;;21.00;99.60;;;;;;5072460;28;20036;-58
2021/10/19 10:30:18;;;;;;;8.48;2.85;;;21.20;99.60;;;;;;5054775;28;20044;-55
2021/10/19 10:32:46;;;;;;;10.98;3.33;;;21.30;99.30;;;;;;5038439;28;20044;-57
2021/10/19 10:35:16;;;;;;;6.40;3.30;;;21.30;99.10;;;;;;5054633;28;20048;-58
2021/10/19 10:37:58;;;;;;;6.05;2.97;;;21.30;99.20;;;;;;5054439;28;20045;-56
2021/10/19 10:40:36;;;;;;;4.07;2.60;;;21.10;99.20;;;;;;5054489;28;20045;-55
2021/10/19 10:43:22;;;;;;;10.07;3.38;;;21.10;99.40;;;;;;5072498;28;20457;-58
2021/10/19 10:46:14;;;;;;;6.88;3.15;;;21.00;99.20;;;;;;5021859;28;20079;-56
2021/10/19 10:48:43;;;;;;;6.25;3.00;;;20.90;99.30;;;;;;5054717;28;20047;-57
2021/10/19 10:51:12;;;;;;;4.97;3.58;;;20.90;99.40;;;;;;5038051;28;20064;-58
2021/10/19 10:53:43;;;;;;;4.00;2.70;;;20.90;99.40;;;;;;5037125;28;20041;-55
2021/10/19 10:56:12;;;;;;;6.03;3.10;;;21.10;99.30;;;;;;5037618;28;20139;-52
2021/10/19 10:58:42;;;;;;;7.30;3.60;;;21.20;99.20;;;;;;5037864;28;20487;-55
2021/10/19 11:01:21;;;;;;;5.72;2.95;;;21.40;99.70;;;;;;5054555;28;20068;-56
2021/10/19 11:03:52;;;;;;;4.88;3.63;;;21.40;98.80;;;;;;5054427;28;20041;-57
2021/10/19 11:06:22;;;;;;;6.78;3.47;;;21.30;98.50;;;;;;5054337;28;20060;-57
2021/10/19 11:08:59;;;;;;;4.47;3.28;;;21.30;98.60;;;;;;5054470;28;20042;-57
2021/10/19 11:11:30;;;;;;;5.30;3.28;;;21.50;99.00;;;;;;5072327;28;20383;-57
2021/10/19 11:13:59;;;;;;;7.47;4.72;;;21.50;98.70;;;;;;5037924;28;20502;-57
2021/10/19 11:16:54;;;;;;;3.95;3.28;;;21.50;98.30;;;;;;5021467;28;20064;-58
2021/10/19 11:19:27;;;;;;;9.60;4.45;;;21.50;98.30;;;;;;5021296;28;20055;-58
2021/10/19 11:22:16;;;;;;;57.45;17.13;;;21.50;98.20;;;;;;5071718;28;20063;-58
2021/10/19 11:24:44;;;;;;;45.22;13.38;;;21.50;98.10;;;;;;5021505;28;20048;-58
2021/10/19 11:27:13;;;;;;;28.65;9.77;;;21.40;98.30;;;;;;5071910;28;20218;-58
2021/10/19 11:29:42;;;;;;;11.80;5.45;;;21.50;98.20;;;;;;5055002;28;20060;-57
2021/10/19 11:32:14;;;;;;;12.25;4.13;;;21.70;98.10;;;;;;5055409;28;20453;-57
2021/10/19 11:34:42;;;;;;;28.33;9.30;;;21.80;98.40;;;;;;5022613;28;20606;-59
2021/10/19 11:37:09;;;;;;;13.25;5.20;;;21.80;97.90;;;;;;5055346;28;20048;-58
2021/10/19 11:39:37;;;;;;;6.45;3.17;;;21.60;97.90;;;;;;5055402;28;20094;-58
2021/10/19 11:42:05;;;;;;;8.40;4.07;;;21.60;98.10;;;;;;5055230;28;20107;-58
2021/10/19 11:44:35;;;;;;;6.00;3.83;;;21.50;98.50;;;;;;5055033;28;20561;-58
2021/10/19 11:47:04;;;;;;;5.75;3.38;;;21.60;98.60;;;;;;5055791;28;20123;-55
2021/10/19 11:49:38;;;;;;;4.70;2.92;;;21.60;98.50;;;;;;5038622;28;20049;-58
2021/10/19 11:52:06;;;;;;;6.63;3.40;;;21.60;98.30;;;;;;5038497;28;20044;-58
2021/10/19 11:54:35;;;;;;;7.05;3.40;;;21.70;98.40;;;;;;5038645;28;20483;-58
2021/10/19 11:57:05;;;;;;;7.68;3.60;;;21.70;98.50;;;;;;5055302;28;20045;-58
2021/10/19 11:59:48;;;;;;;7.57;3.97;;;21.70;98.60;;;;;;5055015;28;20048;-58
2021/10/19 12:02:18;;;;;;;6.95;3.85;;;21.70;98.30;;;;;;5072782;28;20040;-58
2021/10/19 12:04:46;;;;;;;6.15;3.00;;;21.70;98.00;;;;;;5055218;28;20043;-58
2021/10/19 12:07:26;;;;;;;6.82;3.45;;;21.70;98.70;;;;;;5025423;28;20522;-58
2021/10/19 12:09:53;;;;;;;7.20;3.42;;;21.70;98.40;;;;;;5076776;28;20051;-58
2021/10/19 12:12:25;;;;;;;6.82;3.80;;;21.60;98.30;;;;;;5059036;28;20039;-58
2021/10/19 12:14:55;;;;;;;7.50;4.60;;;21.70;98.30;;;;;;5059041;28;20048;-58
2021/10/19 12:17:24;;;;;;;11.65;4.78;;;21.60;98.50;;;;;;5041893;28;20049;-58
2021/10/19 12:20:06;;;;;;;14.52;4.35;;;21.50;98.40;;;;;;5027395;28;20044;-57
2021/10/19 12:22:36;;;;;;;11.68;5.03;;;21.30;98.50;;;;;;5076453;28;20091;-58
2021/10/19 12:25:06;;;;;;;6.18;4.20;;;21.20;98.80;;;;;;5041994;28;20140;-58
2021/10/19 12:27:36;;;;;;;6.18;3.05;;;21.10;99.00;;;;;;5058278;28;20151;-58
2021/10/19 12:30:14;;;;;;;7.20;4.05;;;21.10;99.40;;;;;;5058472;28;20513;-56
2021/10/19 12:32:43;;;;;;;7.45;3.15;;;21.10;99.50;;;;;;5046204;28;20068;-57
2021/10/19 12:35:12;;;;;;;4.50;2.92;;;21.00;98.90;;;;;;5038298;28;20040;-57
2021/10/19 12:37:42;;;;;;;4.45;3.05;;;21.00;99.20;;;;;;5055792;28;20072;-57
2021/10/19 12:40:14;;;;;;;5.45;3.47;;;20.90;99.50;;;;;;5035245;28;20128;-58
2021/10/19 12:42:42;;;;;;;7.20;3.80;;;20.80;99.20;;;;;;5034035;28;20053;-58
2021/10/19 12:45:10;;;;;;;8.02;4.50;;;20.80;99.50;;;;;;5047706;28;20056;-57
2021/10/19 12:47:38;;;;;;;6.80;3.28;;;20.90;99.20;;;;;;5023680;28;20507;-57
2021/10/19 12:50:06;;;;;;;8.30;4.53;;;21.00;99.80;;;;;;5055523;28;20044;-57
2021/10/19 12:52:34;;;;;;;7.05;4.38;;;21.00;99.30;;;;;;5057164;28;20052;-57
2021/10/19 12:55:01;;;;;;;11.88;3.42;;;21.10;99.40;;;;;;5060394;28;20051;-57